Time;durP1;ratioP1;P1;durP2;ratioP2;P2;SDS_P1;SDS_P2;PMS_P1;PMS_P2;Temp;Humidity;BMP_temperature;BMP_pressure;BME280_temperature;BME280_humidity;BME280_pressure;Samples;Min_cycle;Max_cycle;Signal;HPM_P1;HPM_P2
2023/05/11 00:00:03;;;;;;;;;5.33;4.00;;;;;-143.57;100.00;65101.44;5119005;27;45791;-40
2023/05/11 00:02:28;;;;;;;;;3.00;3.00;;;;;-143.57;100.00;65101.44;5118777;27;47071;-39
2023/05/11 00:04:54;;;;;;;;;4.33;3.33;;;;;-143.57;100.00;65101.44;5118612;27;46838;-44
2023/05/11 00:07:20;;;;;;;;;9.00;8.00;;;;;-143.57;100.00;65101.44;5117905;27;45387;-42
2023/05/11 00:09:45;;;;;;;;;7.00;4.00;;;;;-143.57;100.00;65101.44;5119091;27;45414;-41
2023/05/11 00:12:12;;;;;;;;;8.00;5.00;;;;;-143.57;100.00;65101.44;5118684;27;45421;-43
2023/05/11 00:14:37;;;;;;;;;5.00;4.67;;;;;-143.57;100.00;65101.44;5118571;27;45509;-43
2023/05/11 00:17:02;;;;;;;;;3.00;3.00;;;;;-143.57;100.00;65101.44;5118452;27;45336;-40
2023/05/11 00:19:30;;;;;;;;;5.33;2.67;;;;;-143.57;100.00;65101.44;5119029;27;45283;-43
2023/05/11 00:21:58;;;;;;;;;9.67;5.00;;;;;-143.57;100.00;65101.44;5116833;27;45295;-41
2023/05/11 00:24:24;;;;;;;;;8.00;4.00;;;;;-143.57;100.00;65101.44;5118356;27;45411;-41
2023/05/11 00:26:50;;;;;;;;;3.33;3.33;;;;;-143.57;100.00;65101.44;5118797;27;45396;-41
2023/05/11 00:29:18;;;;;;;;;4.33;3.00;;;;;-143.57;100.00;65101.44;5118642;27;45441;-49
2023/05/11 00:31:46;;;;;;;;;5.00;3.33;;;;;-143.57;100.00;65101.44;5118221;27;45435;-42
2023/05/11 00:34:13;;;;;;;;;5.33;2.67;;;;;-143.57;100.00;65101.44;5118281;27;45492;-41
2023/05/11 00:36:39;;;;;;;;;5.33;3.33;;;;;-143.57;100.00;65101.44;5118418;27;45416;-42
2023/05/11 00:39:04;;;;;;;;;7.67;3.00;;;;;-143.57;100.00;65101.44;5117171;27;45246;-42
2023/05/11 00:41:30;;;;;;;;;3.00;3.00;;;;;-143.57;100.00;65101.44;5118207;27;45864;-41
2023/05/11 00:43:55;;;;;;;;;5.67;4.00;;;;;-143.57;100.00;65101.44;5118046;27;45376;-43
2023/05/11 00:46:21;;;;;;;;;6.33;3.00;;;;;-143.57;100.00;65101.44;5118013;27;45404;-41
2023/05/11 00:48:46;;;;;;;;;4.00;4.00;;;;;-143.57;100.00;65101.44;5118370;27;45408;-41
2023/05/11 00:51:12;;;;;;;;;9.67;4.00;;;;;-143.57;100.00;65101.44;5117760;27;45330;-44
2023/05/11 00:53:37;;;;;;;;;3.00;3.00;;;;;-143.57;100.00;65101.44;5117893;27;45913;-44
2023/05/11 00:56:03;;;;;;;;;5.67;5.67;;;;;-143.57;100.00;65101.44;5118032;27;45297;-42
2023/05/11 00:58:30;;;;;;;;;4.33;4.33;;;;;-143.57;100.00;65101.44;5117943;27;45317;-40
2023/05/11 01:00:55;;;;;;;;;4.67;4.00;;;;;-143.57;100.00;65101.44;5117926;27;46266;-42
2023/05/11 01:03:21;;;;;;;;;7.33;5.67;;;;;-143.57;100.00;65101.44;5118036;27;45475;-40
2023/05/11 01:05:59;;;;;;;;;6.33;4.67;;;;;-143.57;100.00;65101.44;5117895;27;45337;-40
2023/05/11 01:08:50;;;;;;;;;2.00;2.00;;;;;-143.57;100.00;65101.44;5118236;27;45325;-40
2023/05/11 01:11:36;;;;;;;;;8.67;4.00;;;;;-143.57;100.00;65101.44;5117500;27;46976;-43
2023/05/11 01:14:26;;;;;;;;;7.33;2.67;;;;;-143.57;100.00;65101.44;5117343;27;45365;-41
2023/05/11 01:16:58;;;;;;;;;8.33;5.00;;;;;-143.57;100.00;65101.44;5117650;27;45412;-45
2023/05/11 01:19:38;;;;;;;;;4.33;4.00;;;;;-143.57;100.00;65101.44;5117859;27;45373;-41
2023/05/11 01:22:14;;;;;;;;;2.67;2.67;;;;;-143.57;100.00;65101.44;5117395;27;45965;-41
2023/05/11 01:25:04;;;;;;;;;3.00;3.00;;;;;-143.57;100.00;65101.44;5117591;27;45396;-41
2023/05/11 01:27:51;;;;;;;;;4.33;4.33;;;;;-143.57;100.00;65101.44;5117812;27;45468;-41
2023/05/11 01:30:28;;;;;;;;;8.00;3.67;;;;;-143.57;100.00;65101.44;5117649;27;45362;-40
2023/05/11 01:32:59;;;;;;;;;8.00;4.33;;;;;-143.57;100.00;65101.44;5116897;27;45551;-40
2023/05/11 01:35:28;;;;;;;;;9.67;6.00;;;;;-143.57;100.00;65101.44;5116982;27;45494;-39
2023/05/11 01:37:57;;;;;;;;;6.00;3.33;;;;;-143.57;100.00;65101.44;5117692;27;45263;-39
2023/05/11 01:40:26;;;;;;;;;4.67;4.00;;;;;-143.57;100.00;65101.44;5117487;27;45523;-39
2023/05/11 01:43:03;;;;;;;;;13.67;7.67;;;;;-143.57;100.00;65101.44;5117240;27;46331;-40
2023/05/11 01:45:31;;;;;;;;;6.67;4.00;;;;;-143.57;100.00;65101.44;5117269;27;45319;-41
2023/05/11 01:48:01;;;;;;;;;4.33;4.33;;;;;-143.57;100.00;65101.44;5117139;27;45437;-40
2023/05/11 01:50:26;;;;;;;;;3.33;1.67;;;;;-143.57;100.00;65101.44;5117392;27;45255;-40
2023/05/11 01:52:52;;;;;;;;;3.67;2.00;;;;;-143.57;100.00;65101.44;5117175;27;46030;-40
2023/05/11 01:55:21;;;;;;;;;4.67;3.00;;;;;-143.57;100.00;65101.44;5117097;27;45347;-39
2023/05/11 01:57:51;;;;;;;;;1.33;1.33;;;;;-143.57;100.00;65101.44;5117263;27;45413;-41
2023/05/11 02:00:17;;;;;;;;;2.00;2.00;;;;;-143.57;100.00;65101.44;5117251;27;45297;-41
2023/05/11 02:02:46;;;;;;;;;1.67;1.33;;;;;-143.57;100.00;65101.44;5118373;27;46008;-43
2023/05/11 02:05:18;;;;;;;;;3.33;2.00;;;;;-143.57;100.00;65101.44;5120537;27;45380;-42
2023/05/11 02:07:47;;;;;;;;;4.00;2.00;;;;;-143.57;100.00;65101.44;5120726;27;45324;-42
2023/05/11 02:10:14;;;;;;;;;1.00;1.00;;;;;-143.57;100.00;65101.44;5120892;27;45588;-41
2023/05/11 02:12:42;;;;;;;;;0.00;0.00;;;;;-143.57;100.00;65101.44;5120407;27;46255;-39
2023/05/11 02:15:10;;;;;;;;;1.00;1.00;;;;;-143.57;100.00;65101.44;5120584;27;45309;-40
2023/05/11 02:17:38;;;;;;;;;1.33;1.33;;;;;-143.57;100.00;65101.44;5120524;27;45393;-39
2023/05/11 02:20:05;;;;;;;;;1.67;1.00;;;;;-143.57;100.00;65101.44;5120678;27;45546;-42
2023/05/11 02:22:35;;;;;;;;;5.67;2.00;;;;;-143.57;100.00;65101.44;5120247;27;46296;-41
2023/05/11 02:25:00;;;;;;;;;1.00;1.00;;;;;-143.57;100.00;65101.44;5120234;27;45400;-41
2023/05/11 02:27:26;;;;;;;;;2.00;0.00;;;;;-143.57;100.00;65101.44;5120619;27;45300;-40
2023/05/11 02:29:52;;;;;;;;;4.67;1.00;;;;;-143.57;100.00;65101.44;5120690;27;45405;-41
2023/05/11 02:32:21;;;;;;;;;1.00;1.00;;;;;-143.57;100.00;65101.44;5119737;27;46502;-43
2023/05/11 02:34:59;;;;;;;;;1.33;1.00;;;;;-143.57;100.00;65101.44;5120237;27;45441;-41
2023/05/11 02:37:26;;;;;;;;;0.67;0.67;;;;;-143.57;100.00;65101.44;5120551;27;45398;-41
2023/05/11 02:39:59;;;;;;;;;4.00;2.33;;;;;-143.57;100.00;65101.44;5120557;27;45234;-41
2023/05/11 02:42:27;;;;;;;;;2.00;2.00;;;;;-143.57;100.00;65101.44;5120198;27;47264;-41
2023/05/11 02:45:08;;;;;;;;;4.33;2.00;;;;;-143.57;100.00;65101.44;5120346;27;45375;-38
2023/05/11 02:47:44;;;;;;;;;8.00;3.67;;;;;-143.57;100.00;65101.44;5120100;27;45380;-40
2023/05/11 02:50:12;;;;;;;;;2.00;2.00;;;;;-143.57;100.00;65101.44;5120466;27;45482;-41
2023/05/11 02:52:43;;;;;;;;;2.33;1.00;;;;;-143.57;100.00;65101.44;5120207;27;45484;-42
2023/05/11 02:55:10;;;;;;;;;3.00;3.00;;;;;-143.57;100.00;65101.44;5121286;27;45320;-40
2023/05/11 02:57:37;;;;;;;;;3.00;2.00;;;;;-143.57;100.00;65101.44;5121076;27;45251;-43
2023/05/11 03:00:03;;;;;;;;;3.00;3.00;;;;;-143.57;100.00;65101.44;5121469;27;45672;-43
2023/05/11 03:02:31;;;;;;;;;3.00;1.00;;;;;-143.57;100.00;65101.44;5120659;27;45515;-42
2023/05/11 03:04:57;;;;;;;;;2.67;1.00;;;;;-143.57;100.00;65101.44;5121007;27;45332;-42
2023/05/11 03:07:22;;;;;;;;;4.33;3.00;;;;;-143.57;100.00;65101.44;5121374;27;45294;-48
2023/05/11 03:09:51;;;;;;;;;3.00;2.67;;;;;-143.57;100.00;65101.44;5121381;27;45484;-43
2023/05/11 03:12:16;;;;;;;;;2.00;2.00;;;;;-143.57;100.00;65101.44;5102485;27;45207;-44
2023/05/11 03:14:46;;;;;;;;;4.00;3.00;;;;;-143.57;100.00;65101.44;5118511;27;45333;-43
2023/05/11 03:17:12;;;;;;;;;3.33;2.00;;;;;-143.57;100.00;65101.44;5119581;27;45461;-42
2023/05/11 03:19:40;;;;;;;;;3.00;2.33;;;;;-143.57;100.00;65101.44;5119955;27;45355;-41
2023/05/11 03:22:07;;;;;;;;;4.00;2.00;;;;;-143.57;100.00;65101.44;5119436;27;45729;-40
2023/05/11 03:24:33;;;;;;;;;3.00;2.00;;;;;-143.57;100.00;65101.44;5119238;27;45427;-42
2023/05/11 03:27:00;;;;;;;;;4.33;3.00;;;;;-143.57;100.00;65101.44;5119488;27;45493;-43
2023/05/11 03:29:26;;;;;;;;;3.00;2.00;;;;;-143.57;100.00;65101.44;5119612;27;45579;-41
2023/05/11 03:31:53;;;;;;;;;1.67;1.67;;;;;-143.57;100.00;65101.44;5118987;27;45479;-42
2023/05/11 03:34:19;;;;;;;;;4.67;1.33;;;;;-143.57;100.00;65101.44;5119434;27;45343;-42
2023/05/11 03:36:47;;;;;;;;;2.00;2.00;;;;;-143.57;100.00;65101.44;5119249;27;45345;-41
2023/05/11 03:39:15;;;;;;;;;2.67;2.33;;;;;-143.57;100.00;65101.44;5119524;27;45987;-41
2023/05/11 03:41:42;;;;;;;;;0.33;0.33;;;;;-143.57;100.00;65101.44;5119141;27;45422;-41
2023/05/11 03:44:10;;;;;;;;;4.00;2.67;;;;;-143.57;100.00;65101.44;5119029;27;45348;-42
2023/05/11 03:46:49;;;;;;;;;1.00;1.00;;;;;-143.57;100.00;65101.44;5119246;27;45397;-41
2023/05/11 03:49:16;;;;;;;;;1.67;1.00;;;;;-143.57;100.00;65101.44;5119361;27;45500;-42
2023/05/11 03:51:43;;;;;;;;;1.00;1.00;;;;;-143.57;100.00;65101.44;5118812;27;46504;-41
2023/05/11 03:54:09;;;;;;;;;4.33;3.00;;;;;-143.57;100.00;65101.44;5119041;27;45451;-41
2023/05/11 03:56:36;;;;;;;;;3.33;2.00;;;;;-143.57;100.00;65101.44;5118973;27;45432;-41
2023/05/11 03:59:02;;;;;;;;;2.00;2.00;;;;;-143.57;100.00;65101.44;5119197;27;45398;-39
2023/05/11 04:01:30;;;;;;;;;1.00;1.00;;;;;-143.57;100.00;65101.44;5118674;27;45325;-41
2023/05/11 04:03:55;;;;;;;;;1.00;1.00;;;;;-143.57;100.00;65101.44;5118575;27;45429;-40
2023/05/11 04:06:21;;;;;;;;;4.00;2.00;;;;;-143.57;100.00;65101.44;5119093;27;45826;-42
2023/05/11 04:08:46;;;;;;;;;7.33;3.67;;;;;-143.57;100.00;65101.44;5119076;27;45388;-41
2023/05/11 04:11:12;;;;;;;;;2.00;2.00;;;;;-143.57;100.00;65101.44;5118732;27;46152;-42
2023/05/11 04:13:37;;;;;;;;;2.00;2.00;;;;;-143.57;100.00;65101.44;5118590;27;45435;-42
2023/05/11 04:16:02;;;;;;;;;6.33;3.00;;;;;-143.57;100.00;65101.44;5118752;27;45586;-41
2023/05/11 04:18:28;;;;;;;;;1.00;1.00;;;;;-143.57;100.00;65101.44;5118726;27;45290;-42
2023/05/11 04:20:54;;;;;;;;;2.00;2.00;;;;;-143.57;100.00;65101.44;5118478;27;46279;-41
2023/05/11 04:23:19;;;;;;;;;4.67;3.00;;;;;-143.57;100.00;65101.44;5118507;27;45362;-43
2023/05/11 04:25:44;;;;;;;;;4.00;1.33;;;;;-143.57;100.00;65101.44;5117767;27;45297;-42
2023/05/11 04:28:10;;;;;;;;;1.00;1.00;;;;;-143.57;100.00;65101.44;5118800;27;45259;-42
2023/05/11 04:30:35;;;;;;;;;2.00;2.00;;;;;-143.57;100.00;65101.44;5118268;27;46771;-41
2023/05/11 04:33:01;;;;;;;;;2.67;2.00;;;;;-143.57;100.00;65101.44;5118083;27;45416;-44
2023/05/11 04:35:26;;;;;;;;;3.00;3.00;;;;;-143.57;100.00;65101.44;5118374;27;45408;-41
2023/05/11 04:37:51;;;;;;;;;2.00;2.00;;;;;-143.57;100.00;65101.44;5118729;27;45472;-43
2023/05/11 04:40:17;;;;;;;;;1.00;1.00;;;;;-143.57;100.00;65101.44;5118210;27;45323;-42
2023/05/11 04:42:42;;;;;;;;;2.00;2.00;;;;;-143.57;100.00;65101.44;5118344;27;45368;-43
2023/05/11 04:45:08;;;;;;;;;2.33;2.33;;;;;-143.57;100.00;65101.44;5118224;27;45274;-43
2023/05/11 04:47:34;;;;;;;;;3.67;3.00;;;;;-143.57;100.00;65101.44;5118326;27;45504;-44
2023/05/11 04:49:59;;;;;;;;;4.67;3.00;;;;;-143.57;100.00;65101.44;5118129;27;45327;-46
2023/05/11 04:52:24;;;;;;;;;4.00;2.00;;;;;-143.57;100.00;65101.44;5118109;27;45397;-43
2023/05/11 04:54:50;;;;;;;;;3.67;3.67;;;;;-143.57;100.00;65101.44;5118489;27;45453;-43
2023/05/11 04:57:15;;;;;;;;;3.00;1.67;;;;;-143.57;100.00;65101.44;5118405;27;45373;-43
2023/05/11 04:59:40;;;;;;;;;5.00;3.00;;;;;-143.57;100.00;65101.44;5117896;27;46944;-42
2023/05/11 05:02:06;;;;;;;;;8.67;4.00;;;;;-143.57;100.00;65101.44;5118398;27;45495;-44
2023/05/11 05:04:31;;;;;;;;;6.33;3.00;;;;;-143.57;100.00;65101.44;5118203;27;45423;-44
2023/05/11 05:06:56;;;;;;;;;8.33;3.33;;;;;-143.57;100.00;65101.44;5118162;27;45380;-42
2023/05/11 05:09:22;;;;;;;;;5.67;4.00;;;;;-143.57;100.00;65101.44;5117973;27;45439;-45
2023/05/11 05:11:47;;;;;;;;;7.00;4.00;;;;;-143.57;100.00;65101.44;5117798;27;45401;-44
2023/05/11 05:14:12;;;;;;;;;2.00;2.00;;;;;-143.57;100.00;65101.44;5118065;27;45739;-43
2023/05/11 05:16:38;;;;;;;;;7.00;3.00;;;;;-143.57;100.00;65101.44;5117953;27;45444;-42
2023/05/11 05:19:03;;;;;;;;;7.33;3.00;;;;;-143.57;100.00;65101.44;5117768;27;46115;-44
2023/05/11 05:21:29;;;;;;;;;5.33;3.00;;;;;-143.57;100.00;65101.44;5117881;27;45348;-43
2023/05/11 05:23:54;;;;;;;;;5.00;5.00;;;;;-143.57;100.00;65101.44;5117794;27;45301;-44
2023/05/11 05:26:20;;;;;;;;;4.33;3.67;;;;;-143.57;100.00;65101.44;5118188;27;45288;-42
2023/05/11 05:28:46;;;;;;;;;4.00;4.00;;;;;-143.57;100.00;65101.44;5099208;27;46269;-41
2023/05/11 05:31:11;;;;;;;;;9.33;5.00;;;;;-143.57;100.00;65101.44;5117511;27;45239;-44
2023/05/11 05:33:36;;;;;;;;;8.00;4.00;;;;;-143.57;100.00;65101.44;5117122;27;45235;-43
2023/05/11 05:36:02;;;;;;;;;3.33;3.33;;;;;-143.57;100.00;65101.44;5117724;27;45352;-43
2023/05/11 05:38:27;;;;;;;;;8.00;4.00;;;;;-143.57;100.00;65101.44;5119943;27;46661;-43
2023/05/11 05:40:53;;;;;;;;;4.67;4.67;;;;;-143.57;100.00;65101.44;5121436;27;45313;-43
2023/05/11 05:43:18;;;;;;;;;4.00;4.00;;;;;-143.57;100.00;65101.44;5121542;27;45289;-43
2023/05/11 05:45:44;;;;;;;;;8.00;5.67;;;;;-143.57;100.00;65101.44;5121481;27;45467;-44
2023/05/11 05:48:09;;;;;;;;;6.00;4.00;;;;;-143.57;100.00;65101.44;5120892;27;54134;-42
2023/05/11 05:50:34;;;;;;;;;6.00;3.00;;;;;-143.57;100.00;65101.44;5120993;27;45395;-41
2023/05/11 05:53:00;;;;;;;;;8.67;3.67;;;;;-143.57;100.00;65101.44;5121035;27;45604;-41
2023/05/11 05:55:25;;;;;;;;;6.00;4.67;;;;;-143.57;100.00;65101.44;5121364;27;45270;-42
2023/05/11 05:57:51;;;;;;;;;4.67;4.00;;;;;-143.57;100.00;65101.44;5120941;27;46031;-38
2023/05/11 06:00:16;;;;;;;;;5.00;4.67;;;;;-143.57;100.00;65101.44;5120963;27;45433;-42
2023/05/11 06:02:42;;;;;;;;;4.33;2.33;;;;;-143.57;100.00;65101.44;5121067;27;45373;-41
2023/05/11 06:05:07;;;;;;;;;4.00;4.00;;;;;-143.57;100.00;65101.44;5121040;27;45443;-39
2023/05/11 06:07:33;;;;;;;;;8.00;5.00;;;;;-143.57;100.00;65101.44;5120866;27;46265;-40
2023/05/11 06:09:58;;;;;;;;;6.33;4.00;;;;;-143.57;100.00;65101.44;5120695;27;46900;-42
2023/05/11 06:12:24;;;;;;;;;6.00;5.00;;;;;-143.57;100.00;65101.44;5102760;27;45401;-43
2023/05/11 06:14:49;;;;;;;;;9.33;6.33;;;;;-143.57;100.00;65101.44;5120674;27;45531;-42
2023/05/11 06:17:15;;;;;;;;;11.00;6.33;;;;;-143.57;100.00;65101.44;5120718;27;45443;-44
2023/05/11 06:19:41;;;;;;;;;11.00;8.00;;;;;-143.57;100.00;65101.44;5120694;27;45451;-42
2023/05/11 06:22:06;;;;;;;;;5.00;4.00;;;;;-143.57;100.00;65101.44;5120209;27;45455;-43
2023/05/11 06:24:32;;;;;;;;;7.00;5.33;;;;;-143.57;100.00;65101.44;5120664;27;45479;-43
2023/05/11 06:26:57;;;;;;;;;9.00;8.00;;;;;-143.57;100.00;65101.44;5120391;27;46113;-44
2023/05/11 06:29:23;;;;;;;;;13.33;8.00;;;;;-143.57;100.00;65101.44;5120718;27;45277;-43
2023/05/11 06:31:51;;;;;;;;;9.00;7.67;;;;;-143.57;100.00;65101.44;5120802;27;45361;-41
2023/05/11 06:34:18;;;;;;;;;8.33;7.00;;;;;-143.57;100.00;65101.44;5120807;27;45408;-43
2023/05/11 06:36:43;;;;;;;;;6.67;3.33;;;;;-143.57;100.00;65101.44;5120417;27;46964;-43
2023/05/11 06:39:08;;;;;;;;;6.33;5.33;;;;;-143.57;100.00;65101.44;5120151;27;50785;-44
2023/05/11 06:41:34;;;;;;;;;4.00;4.00;;;;;-143.57;100.00;65101.44;5120606;27;45419;-42
2023/05/11 06:43:59;;;;;;;;;7.00;7.00;;;;;-143.57;100.00;65101.44;5120661;27;45407;-43
2023/05/11 06:46:25;;;;;;;;;7.00;7.00;;;;;-143.57;100.00;65101.44;5120284;27;45297;-41
2023/05/11 06:48:50;;;;;;;;;7.00;5.00;;;;;-143.57;100.00;65101.44;5120159;27;45267;-41
2023/05/11 06:51:15;;;;;;;;;4.67;4.67;;;;;-143.57;100.00;65101.44;5120421;27;45361;-41
2023/05/11 06:53:41;;;;;;;;;5.33;3.00;;;;;-143.57;100.00;65101.44;5120509;27;45272;-42
2023/05/11 06:56:07;;;;;;;;;2.00;2.00;;;;;-143.57;100.00;65101.44;5120307;27;45341;-45
2023/05/11 06:58:32;;;;;;;;;5.00;4.00;;;;;-143.57;100.00;65101.44;5120133;27;45294;-42
2023/05/11 07:00:58;;;;;;;;;8.00;7.00;;;;;-143.57;100.00;65101.44;5120078;27;45618;-43
2023/05/11 07:03:23;;;;;;;;;4.33;4.33;;;;;-143.57;100.00;65101.44;5120697;27;45510;-40
2023/05/11 07:05:48;;;;;;;;;34.00;18.00;;;;;-143.57;100.00;65101.44;5119616;27;45376;-42
2023/05/11 07:08:14;;;;;;;;;12.67;9.00;;;;;-143.57;100.00;65101.44;5120206;27;45366;-43
2023/05/11 07:10:40;;;;;;;;;6.67;6.33;;;;;-143.57;100.00;65101.44;5120300;27;45559;-41
2023/05/11 07:13:06;;;;;;;;;12.33;9.00;;;;;-143.57;100.00;65101.44;5120208;27;45407;-42
2023/05/11 07:15:31;;;;;;;;;9.67;7.67;;;;;-143.57;100.00;65101.44;5118820;27;46534;-41
2023/05/11 07:17:56;;;;;;;;;10.67;6.33;;;;;-143.57;100.00;65101.44;5119844;27;45455;-42
2023/05/11 07:20:22;;;;;;;;;8.33;6.00;;;;;-143.57;100.00;65101.44;5120149;27;45357;-43
2023/05/11 07:22:47;;;;;;;;;12.67;9.67;;;;;-143.57;100.00;65101.44;5101434;27;45373;-42
2023/05/11 07:25:12;;;;;;;;;8.67;8.00;;;;;-143.57;100.00;65101.44;5119723;27;46126;-41
2023/05/11 07:27:38;;;;;;;;;10.67;8.33;;;;;-143.57;100.00;65101.44;5119540;27;45328;-40
2023/05/11 07:30:04;;;;;;;;;6.33;6.33;;;;;-143.57;100.00;65101.44;5119729;27;45427;-41
2023/05/11 07:32:29;;;;;;;;;6.33;6.33;;;;;-143.57;100.00;65101.44;5119904;27;45312;-41
2023/05/11 07:34:55;;;;;;;;;9.00;6.33;;;;;-143.57;100.00;65101.44;5119264;27;45685;-40
2023/05/11 07:37:20;;;;;;;;;8.00;8.00;;;;;-143.57;100.00;65101.44;5119633;27;45230;-40
2023/05/11 07:39:46;;;;;;;;;11.33;8.00;;;;;-143.57;100.00;65101.44;5119459;27;45302;-41
2023/05/11 07:42:12;;;;;;;;;9.67;7.00;;;;;-143.57;100.00;65101.44;5119552;27;45374;-43
2023/05/11 07:44:37;;;;;;;;;8.67;7.00;;;;;-143.57;100.00;65101.44;5118698;27;46517;-42
2023/05/11 07:47:02;;;;;;;;;10.00;7.67;;;;;-143.57;100.00;65101.44;5119341;27;45318;-42
2023/05/11 07:49:28;;;;;;;;;3.67;3.00;;;;;-143.57;100.00;65101.44;5119530;27;45341;-40
2023/05/11 07:51:53;;;;;;;;;10.00;8.00;;;;;-143.57;100.00;65101.44;5119524;27;45264;-42
2023/05/11 07:54:18;;;;;;;;;9.00;8.00;;;;;-143.57;100.00;65101.44;5119359;27;46274;-40
2023/05/11 07:56:44;;;;;;;;;5.00;5.00;;;;;-143.57;100.00;65101.44;5119486;27;45278;-40
2023/05/11 07:59:09;;;;;;;;;6.33;6.00;;;;;-143.57;100.00;65101.44;5119616;27;45427;-40
2023/05/11 08:01:34;;;;;;;;;9.00;7.33;;;;;-143.57;100.00;65101.44;5099559;27;45613;-41
2023/05/11 08:04:00;;;;;;;;;4.67;4.67;;;;;-143.57;100.00;65101.44;5118445;27;45467;-40
2023/05/11 08:06:25;;;;;;;;;9.33;9.00;;;;;-143.57;100.00;65101.44;5119088;27;45775;-42
2023/05/11 08:08:50;;;;;;;;;7.33;7.33;;;;;-143.57;100.00;65101.44;5119371;27;45407;-40
2023/05/11 08:11:16;;;;;;;;;5.33;5.33;;;;;-143.57;100.00;65101.44;5117938;27;45539;-42
2023/05/11 08:13:41;;;;;;;;;5.00;5.00;;;;;-143.57;100.00;65101.44;5118968;27;45726;-41
2023/05/11 08:16:07;;;;;;;;;6.00;6.00;;;;;-143.57;100.00;65101.44;5118965;27;45380;-40
2023/05/11 08:18:32;;;;;;;;;10.33;6.00;;;;;-143.57;100.00;65101.44;5119108;27;45479;-43
2023/05/11 08:20:58;;;;;;;;;11.33;10.00;;;;;-143.57;100.00;65101.44;5119201;27;45357;-42
2023/05/11 08:23:23;;;;;;;;;14.67;11.00;;;;;-143.57;100.00;65101.44;5118652;27;46316;-43
2023/05/11 08:25:53;;;;;;;;;9.33;7.33;;;;;-143.57;100.00;65101.44;5118714;27;45309;-42
2023/05/11 08:28:20;;;;;;;;;7.67;5.67;;;;;-143.57;100.00;65101.44;5118958;27;45717;-44
2023/05/11 08:30:45;;;;;;;;;9.33;9.00;;;;;-143.57;100.00;65101.44;5118842;27;45489;-42
2023/05/11 08:33:12;;;;;;;;;13.33;6.00;;;;;-143.57;100.00;65101.44;5118349;27;46101;-43
2023/05/11 08:35:38;;;;;;;;;6.00;5.00;;;;;-143.57;100.00;65101.44;5108221;27;45550;-44
2023/05/11 08:38:04;;;;;;;;;6.00;6.00;;;;;-143.57;100.00;65101.44;5118697;27;45317;-42
2023/05/11 08:40:30;;;;;;;;;5.33;5.00;;;;;-143.57;100.00;65101.44;5118822;27;45352;-42
2023/05/11 08:42:56;;;;;;;;;8.33;6.67;;;;;-143.57;100.00;65101.44;5118322;27;45349;-42
2023/05/11 08:45:21;;;;;;;;;6.00;5.50;;;;;-143.57;100.00;65101.44;5118313;27;45255;-43
2023/05/11 08:47:47;;;;;;;;;11.00;7.33;;;;;-143.57;100.00;65101.44;5118315;27;45259;-42
2023/05/11 08:50:13;;;;;;;;;6.33;6.33;;;;;-143.57;100.00;65101.44;5118435;27;45407;-43
2023/05/11 08:52:39;;;;;;;;;7.00;6.50;;;;;-143.57;100.00;65101.44;5099399;27;46110;-42
2023/05/11 08:55:06;;;;;;;;;5.75;5.75;;;;;-143.57;100.00;65101.44;5117932;27;45456;-43
2023/05/11 08:57:33;;;;;;;;;6.75;5.00;;;;;-143.57;100.00;65101.44;5118360;27;45346;-41
2023/05/11 09:00:01;;;;;;;;;13.67;11.00;;;;;-143.57;100.00;65101.44;5117776;27;45436;-42
2023/05/11 09:02:27;;;;;;;;;9.50;8.75;;;;;-143.57;100.00;65101.44;5117687;27;46464;-42
2023/05/11 09:04:53;;;;;;;;;7.00;6.00;;;;;-143.57;100.00;65101.44;5117767;27;45309;-42
2023/05/11 09:07:20;;;;;;;;;6.50;6.00;;;;;-143.57;100.00;65101.44;5117734;27;45310;-40
2023/05/11 09:09:46;;;;;;;;;8.50;7.00;;;;;-143.57;100.00;65101.44;5116912;27;45540;-39
2023/05/11 09:12:12;;;;;;;;;10.00;7.75;;;;;-143.57;100.00;65101.44;5117286;27;45411;-41
2023/05/11 09:14:37;;;;;;;;;7.75;6.25;;;;;-143.57;100.00;65101.44;5117919;27;45321;-42
2023/05/11 09:17:03;;;;;;;;;8.25;7.75;;;;;-143.57;100.00;65101.44;5117796;27;45311;-40
2023/05/11 09:19:29;;;;;;;;;8.00;6.75;;;;;-143.57;100.00;65101.44;5118459;27;45567;-41
2023/05/11 09:21:55;;;;;;;;;5.75;5.75;;;;;-143.57;100.00;65101.44;5117717;27;46243;-42
2023/05/11 09:24:21;;;;;;;;;9.00;5.25;;;;;-143.57;100.00;65101.44;5117926;27;45250;-42
2023/05/11 09:26:47;;;;;;;;;7.75;7.25;;;;;-143.57;100.00;65101.44;5117934;27;45239;-41
2023/05/11 09:29:12;;;;;;;;;7.75;7.75;;;;;-143.57;100.00;65101.44;5118380;27;45172;-41
2023/05/11 09:31:46;;;;;;;;;7.25;5.75;;;;;-143.57;100.00;65101.44;5116252;27;46190;-41
2023/05/11 09:34:17;;;;;;;;;9.25;5.75;;;;;-143.57;100.00;65101.44;5117619;27;45361;-41
2023/05/11 09:36:49;;;;;;;;;8.50;6.00;;;;;-143.57;100.00;65101.44;5117976;27;45483;-40
2023/05/11 09:39:18;;;;;;;;;8.00;7.50;;;;;-143.57;100.00;65101.44;5117944;27;45483;-41
2023/05/11 09:41:44;;;;;;;;;11.00;7.50;;;;;-143.57;100.00;65101.44;5117646;27;46081;-40
2023/05/11 09:44:14;;;;;;;;;11.00;9.25;;;;;-143.57;100.00;65101.44;5117639;27;45423;-40
2023/05/11 09:46:41;;;;;;;;;9.75;8.75;;;;;-143.57;100.00;65101.44;5118010;27;45664;-41
2023/05/11 09:49:08;;;;;;;;;8.50;8.50;;;;;-143.57;100.00;65101.44;5117912;27;45362;-41
2023/05/11 09:51:37;;;;;;;;;7.50;6.75;;;;;-143.57;100.00;65101.44;5117503;27;46194;-41
2023/05/11 09:54:20;;;;;;;;;8.75;8.00;;;;;-143.57;100.00;65101.44;5117393;27;45320;-41
2023/05/11 09:56:46;;;;;;;;;5.25;5.25;;;;;-143.57;100.00;65101.44;5117778;27;45262;-42
2023/05/11 09:59:14;;;;;;;;;5.00;5.00;;;;;-143.57;100.00;65101.44;5117706;27;45550;-42
2023/05/11 10:01:39;;;;;;;;;6.00;5.50;;;;;-143.57;100.00;65101.44;5117347;27;46098;-41
2023/05/11 10:04:07;;;;;;;;;7.25;4.00;;;;;-143.57;100.00;65101.44;5117314;27;45757;-41
2023/05/11 10:06:42;;;;;;;;;5.75;4.75;;;;;-143.57;100.00;65101.44;5117238;27;45795;-38
2023/05/11 10:09:09;;;;;;;;;6.50;5.25;;;;;-143.57;100.00;65101.44;5117402;27;45457;-41
2023/05/11 10:11:36;;;;;;;;;8.00;6.25;;;;;-143.57;100.00;65101.44;5117112;27;46272;-41
2023/05/11 10:14:02;;;;;;;;;6.60;6.60;;;;;-143.57;100.00;65101.44;5117155;27;45760;-40
2023/05/11 10:16:28;;;;;;;;;7.75;7.00;;;;;-143.57;100.00;65101.44;5098845;27;45367;-40
2023/05/11 10:18:53;;;;;;;;;10.00;7.00;;;;;-143.57;100.00;65101.44;5117515;27;45478;-43
2023/05/11 10:21:19;;;;;;;;;6.50;5.00;;;;;-143.57;100.00;65101.44;5117024;27;46186;-42
2023/05/11 10:23:45;;;;;;;;;7.00;5.60;;;;;-143.57;100.00;65101.44;5118568;27;45568;-42
2023/05/11 10:26:11;;;;;;;;;5.00;5.00;;;;;-143.57;100.00;65101.44;5120829;27;45541;-40
2023/05/11 10:28:37;;;;;;;;;6.80;4.80;;;;;-143.57;100.00;65101.44;5120818;27;45263;-42
2023/05/11 10:31:03;;;;;;;;;5.50;4.00;;;;;-143.57;100.00;65101.44;5120665;27;46152;-42
2023/05/11 10:33:30;;;;;;;;;4.20;4.20;;;;;-143.57;100.00;65101.44;5120486;27;45735;-41
2023/05/11 10:35:55;;;;;;;;;5.40;5.40;;;;;-143.57;100.00;65101.44;5119754;27;45555;-39
2023/05/11 10:38:22;;;;;;;;;7.00;5.75;;;;;-143.57;100.00;65101.44;5121104;27;45344;-42
2023/05/11 10:40:50;;;;;;;;;6.00;6.00;;;;;-143.57;100.00;65101.44;5120336;27;47103;-40
2023/05/11 10:43:55;;;;;;;;;4.40;4.20;;;;;-143.57;100.00;65101.44;5120336;27;45396;-42
2023/05/11 10:46:28;;;;;;;;;10.00;7.00;;;;;-143.57;100.00;65101.44;5036308;28;45511;-41
2023/05/11 10:49:21;;;;;;;;;7.75;5.50;;;;;-143.57;100.00;65101.44;5036774;28;45333;-40
2023/05/11 10:52:04;;;;;;;;;7.00;4.50;;;;;-143.57;100.00;65101.44;5035504;28;45738;-41
2023/05/11 10:54:38;;;;;;;;;7.50;7.25;;;;;-143.57;100.00;65101.44;5036421;28;45416;-40
2023/05/11 10:57:30;;;;;;;;;7.75;5.00;;;;;-143.57;100.00;65101.44;5036823;28;45750;-41
2023/05/11 11:00:46;;;;;;;;;7.75;6.00;;;;;-143.57;100.00;65101.44;5036280;28;45890;-42
2023/05/11 11:03:13;;;;;;;;;6.00;4.75;;;;;-143.57;100.00;65101.44;4976811;28;46218;-42
2023/05/11 11:05:40;;;;;;;;;9.00;5.50;;;;;-143.57;100.00;65101.44;4976872;28;45494;-43
2023/05/11 11:08:08;;;;;;;;;6.00;4.75;;;;;-143.57;100.00;65101.44;4976808;28;45377;-40
2023/05/11 11:10:36;;;;;;;;;6.25;6.25;;;;;-143.57;100.00;65101.44;4977052;28;45358;-41